Smockville, Indiana
Current Conditions -  °F | °C
As of 7:35 AM on Tuesday 27 Jan 2015 (Local Time) from K4I7 Reporting Station
Haze Haze  
Wind Chill: -2°   Ceiling: 900
Heat Index: -2°   Visibility: 4mi
Dew Point: -4°   Wind: 3mph
Humidity: 86%   Direction: 10°N
Pressure: 30"   Gusts: NA
Location:  39.5774°N, 87.0605°W
Report Text: K4I7 271235Z AUTO 01003KT 4SM BR SCT004 OVC009 M02/M04 A3000 RMK AO2
Loading
Personal Weather Stations






























Interactive Weather Map New forecast layout! Learn more

10-Day Weather Forecast

Advertisements
Track Severe Weather on mobile